sensor_id;sensor_type;location;lat;lon;timestamp;P1;durP1;ratioP1;P2;durP2;ratioP2
69434;SDS011;56625;54.322;18.582;2023-08-06T00:01:53;6.10;;;2.30;;
69434;SDS011;56625;54.322;18.582;2023-08-06T00:04:22;7.20;;;1.90;;
69434;SDS011;56625;54.322;18.582;2023-08-06T00:06:50;6.20;;;2.10;;
69434;SDS011;56625;54.322;18.582;2023-08-06T00:09:18;7.00;;;2.20;;
69434;SDS011;56625;54.322;18.582;2023-08-06T00:11:46;5.90;;;2.10;;
69434;SDS011;56625;54.322;18.582;2023-08-06T00:14:17;6.90;;;2.40;;
69434;SDS011;56625;54.322;18.582;2023-08-06T00:16:45;7.90;;;2.10;;
69434;SDS011;56625;54.322;18.582;2023-08-06T00:19:13;4.70;;;1.60;;
69434;SDS011;56625;54.322;18.582;2023-08-06T00:21:44;7.00;;;1.90;;
69434;SDS011;56625;54.322;18.582;2023-08-06T00:24:14;9.80;;;2.40;;
69434;SDS011;56625;54.322;18.582;2023-08-06T00:26:42;6.00;;;2.10;;
69434;SDS011;56625;54.322;18.582;2023-08-06T00:29:10;7.70;;;2.20;;
69434;SDS011;56625;54.322;18.582;2023-08-06T00:31:38;7.20;;;2.20;;
69434;SDS011;56625;54.322;18.582;2023-08-06T00:34:06;6.00;;;2.10;;
69434;SDS011;56625;54.322;18.582;2023-08-06T00:36:34;6.80;;;2.50;;
69434;SDS011;56625;54.322;18.582;2023-08-06T00:39:03;6.90;;;2.50;;
69434;SDS011;56625;54.322;18.582;2023-08-06T00:41:32;6.70;;;2.50;;
69434;SDS011;56625;54.322;18.582;2023-08-06T00:44:01;6.50;;;2.00;;
69434;SDS011;56625;54.322;18.582;2023-08-06T00:46:29;6.10;;;1.70;;
69434;SDS011;56625;54.322;18.582;2023-08-06T00:48:59;7.40;;;2.00;;
69434;SDS011;56625;54.322;18.582;2023-08-06T00:51:30;7.60;;;2.20;;
69434;SDS011;56625;54.322;18.582;2023-08-06T00:53:58;8.40;;;2.50;;
69434;SDS011;56625;54.322;18.582;2023-08-06T00:56:27;6.50;;;2.30;;
69434;SDS011;56625;54.322;18.582;2023-08-06T00:58:56;6.00;;;2.30;;
69434;SDS011;56625;54.322;18.582;2023-08-06T01:01:25;8.50;;;2.30;;
69434;SDS011;56625;54.322;18.582;2023-08-06T01:03:53;6.40;;;2.20;;
69434;SDS011;56625;54.322;18.582;2023-08-06T01:06:36;6.60;;;2.30;;
69434;SDS011;56625;54.322;18.582;2023-08-06T01:09:20;7.50;;;2.40;;
69434;SDS011;56625;54.322;18.582;2023-08-06T01:15:01;7.90;;;2.30;;
69434;SDS011;56625;54.322;18.582;2023-08-06T01:17:40;7.80;;;2.30;;
69434;SDS011;56625;54.322;18.582;2023-08-06T01:20:09;9.40;;;2.70;;
69434;SDS011;56625;54.322;18.582;2023-08-06T01:25:07;7.30;;;2.10;;
69434;SDS011;56625;54.322;18.582;2023-08-06T01:27:46;5.70;;;1.70;;
69434;SDS011;56625;54.322;18.582;2023-08-06T01:30:24;8.10;;;2.50;;
69434;SDS011;56625;54.322;18.582;2023-08-06T01:32:58;7.40;;;2.00;;
69434;SDS011;56625;54.322;18.582;2023-08-06T01:35:29;7.30;;;2.60;;
69434;SDS011;56625;54.322;18.582;2023-08-06T01:37:59;10.20;;;2.20;;
69434;SDS011;56625;54.322;18.582;2023-08-06T01:40:29;8.10;;;2.10;;
69434;SDS011;56625;54.322;18.582;2023-08-06T01:42:57;6.90;;;2.40;;
69434;SDS011;56625;54.322;18.582;2023-08-06T01:45:25;8.10;;;1.90;;
69434;SDS011;56625;54.322;18.582;2023-08-06T01:47:53;5.80;;;1.90;;
69434;SDS011;56625;54.322;18.582;2023-08-06T01:50:21;5.50;;;2.20;;
69434;SDS011;56625;54.322;18.582;2023-08-06T01:52:49;6.70;;;2.10;;
69434;SDS011;56625;54.322;18.582;2023-08-06T01:55:17;8.00;;;2.10;;
69434;SDS011;56625;54.322;18.582;2023-08-06T01:57:46;6.70;;;1.50;;
69434;SDS011;56625;54.322;18.582;2023-08-06T02:00:14;5.00;;;1.70;;
69434;SDS011;56625;54.322;18.582;2023-08-06T02:02:42;6.40;;;2.00;;
69434;SDS011;56625;54.322;18.582;2023-08-06T02:05:10;7.90;;;1.90;;
69434;SDS011;56625;54.322;18.582;2023-08-06T02:07:38;6.30;;;2.00;;
69434;SDS011;56625;54.322;18.582;2023-08-06T02:10:06;7.70;;;2.10;;
69434;SDS011;56625;54.322;18.582;2023-08-06T02:12:35;8.40;;;2.70;;
69434;SDS011;56625;54.322;18.582;2023-08-06T02:15:03;7.00;;;2.30;;
69434;SDS011;56625;54.322;18.582;2023-08-06T02:17:31;7.30;;;2.10;;
69434;SDS011;56625;54.322;18.582;2023-08-06T02:20:00;6.60;;;2.50;;
69434;SDS011;56625;54.322;18.582;2023-08-06T02:22:28;8.60;;;2.70;;
69434;SDS011;56625;54.322;18.582;2023-08-06T02:24:56;7.30;;;2.10;;
69434;SDS011;56625;54.322;18.582;2023-08-06T02:27:27;9.50;;;2.60;;
69434;SDS011;56625;54.322;18.582;2023-08-06T02:29:55;9.20;;;2.50;;
69434;SDS011;56625;54.322;18.582;2023-08-06T02:32:23;8.30;;;2.40;;
69434;SDS011;56625;54.322;18.582;2023-08-06T02:34:51;7.70;;;2.60;;
69434;SDS011;56625;54.322;18.582;2023-08-06T02:37:19;6.30;;;2.30;;
69434;SDS011;56625;54.322;18.582;2023-08-06T02:39:47;11.80;;;3.00;;
69434;SDS011;56625;54.322;18.582;2023-08-06T02:42:15;8.50;;;2.50;;
69434;SDS011;56625;54.322;18.582;2023-08-06T02:44:43;7.70;;;2.00;;
69434;SDS011;56625;54.322;18.582;2023-08-06T02:47:11;7.70;;;2.20;;
69434;SDS011;56625;54.322;18.582;2023-08-06T02:49:39;11.30;;;2.50;;
69434;SDS011;56625;54.322;18.582;2023-08-06T02:52:07;10.80;;;2.30;;
69434;SDS011;56625;54.322;18.582;2023-08-06T02:54:35;8.20;;;2.50;;
69434;SDS011;56625;54.322;18.582;2023-08-06T02:57:03;6.90;;;2.30;;
69434;SDS011;56625;54.322;18.582;2023-08-06T02:59:31;9.30;;;2.90;;
69434;SDS011;56625;54.322;18.582;2023-08-06T03:02:00;8.30;;;2.60;;
69434;SDS011;56625;54.322;18.582;2023-08-06T03:04:28;8.00;;;2.70;;
69434;SDS011;56625;54.322;18.582;2023-08-06T03:06:56;5.90;;;2.20;;
69434;SDS011;56625;54.322;18.582;2023-08-06T03:09:24;7.10;;;2.60;;
69434;SDS011;56625;54.322;18.582;2023-08-06T03:11:53;8.00;;;2.60;;
69434;SDS011;56625;54.322;18.582;2023-08-06T03:14:21;9.40;;;2.70;;
69434;SDS011;56625;54.322;18.582;2023-08-06T03:17:17;7.60;;;3.20;;
69434;SDS011;56625;54.322;18.582;2023-08-06T03:19:45;9.20;;;3.20;;
69434;SDS011;56625;54.322;18.582;2023-08-06T03:22:12;7.70;;;3.00;;
69434;SDS011;56625;54.322;18.582;2023-08-06T03:24:40;9.80;;;3.50;;
69434;SDS011;56625;54.322;18.582;2023-08-06T03:27:08;10.30;;;4.00;;
69434;SDS011;56625;54.322;18.582;2023-08-06T03:29:36;10.40;;;4.00;;
69434;SDS011;56625;54.322;18.582;2023-08-06T03:32:04;11.30;;;3.70;;
69434;SDS011;56625;54.322;18.582;2023-08-06T03:34:33;11.20;;;3.70;;
69434;SDS011;56625;54.322;18.582;2023-08-06T03:37:01;9.80;;;3.40;;
69434;SDS011;56625;54.322;18.582;2023-08-06T03:39:29;8.30;;;2.90;;
69434;SDS011;56625;54.322;18.582;2023-08-06T03:42:00;9.30;;;3.60;;
69434;SDS011;56625;54.322;18.582;2023-08-06T03:44:28;9.20;;;3.50;;
69434;SDS011;56625;54.322;18.582;2023-08-06T03:46:55;10.20;;;3.30;;
69434;SDS011;56625;54.322;18.582;2023-08-06T03:49:23;10.80;;;3.50;;
69434;SDS011;56625;54.322;18.582;2023-08-06T03:51:51;8.90;;;3.60;;
69434;SDS011;56625;54.322;18.582;2023-08-06T03:54:20;9.20;;;4.00;;
69434;SDS011;56625;54.322;18.582;2023-08-06T03:56:47;11.30;;;3.50;;
69434;SDS011;56625;54.322;18.582;2023-08-06T03:59:15;9.40;;;3.20;;
69434;SDS011;56625;54.322;18.582;2023-08-06T04:01:43;9.80;;;3.40;;
69434;SDS011;56625;54.322;18.582;2023-08-06T04:04:11;11.00;;;3.50;;
69434;SDS011;56625;54.322;18.582;2023-08-06T04:06:39;10.80;;;3.90;;
69434;SDS011;56625;54.322;18.582;2023-08-06T04:09:07;10.80;;;2.90;;
69434;SDS011;56625;54.322;18.582;2023-08-06T04:11:35;11.10;;;2.90;;
69434;SDS011;56625;54.322;18.582;2023-08-06T04:14:03;8.80;;;3.10;;
69434;SDS011;56625;54.322;18.582;2023-08-06T04:16:31;9.10;;;2.90;;
69434;SDS011;56625;54.322;18.582;2023-08-06T04:18:59;9.40;;;3.70;;
69434;SDS011;56625;54.322;18.582;2023-08-06T04:21:27;9.50;;;3.60;;
69434;SDS011;56625;54.322;18.582;2023-08-06T04:23:56;9.20;;;3.30;;
69434;SDS011;56625;54.322;18.582;2023-08-06T04:26:24;11.20;;;3.80;;
69434;SDS011;56625;54.322;18.582;2023-08-06T04:28:52;7.70;;;3.20;;
69434;SDS011;56625;54.322;18.582;2023-08-06T04:31:21;8.40;;;3.30;;
69434;SDS011;56625;54.322;18.582;2023-08-06T04:33:49;12.50;;;4.10;;
69434;SDS011;56625;54.322;18.582;2023-08-06T04:36:17;9.90;;;3.10;;
69434;SDS011;56625;54.322;18.582;2023-08-06T04:38:45;12.20;;;3.50;;
69434;SDS011;56625;54.322;18.582;2023-08-06T04:41:15;11.70;;;3.70;;
69434;SDS011;56625;54.322;18.582;2023-08-06T04:43:42;10.00;;;3.30;;
69434;SDS011;56625;54.322;18.582;2023-08-06T04:46:11;11.20;;;3.90;;
69434;SDS011;56625;54.322;18.582;2023-08-06T04:48:39;12.50;;;4.00;;
69434;SDS011;56625;54.322;18.582;2023-08-06T04:51:07;9.00;;;4.10;;
69434;SDS011;56625;54.322;18.582;2023-08-06T04:53:34;9.90;;;3.80;;
69434;SDS011;56625;54.322;18.582;2023-08-06T04:56:02;11.10;;;3.60;;
69434;SDS011;56625;54.322;18.582;2023-08-06T04:58:31;11.00;;;3.60;;
69434;SDS011;56625;54.322;18.582;2023-08-06T05:00:58;10.20;;;4.10;;
69434;SDS011;56625;54.322;18.582;2023-08-06T05:03:26;9.60;;;3.30;;
69434;SDS011;56625;54.322;18.582;2023-08-06T05:05:55;11.40;;;4.00;;
69434;SDS011;56625;54.322;18.582;2023-08-06T05:08:23;10.50;;;4.10;;
69434;SDS011;56625;54.322;18.582;2023-08-06T05:10:51;10.10;;;3.70;;
69434;SDS011;56625;54.322;18.582;2023-08-06T05:13:19;8.70;;;3.50;;
69434;SDS011;56625;54.322;18.582;2023-08-06T05:15:47;11.60;;;3.70;;
69434;SDS011;56625;54.322;18.582;2023-08-06T05:18:15;10.50;;;3.70;;
69434;SDS011;56625;54.322;18.582;2023-08-06T05:20:44;12.70;;;3.70;;
69434;SDS011;56625;54.322;18.582;2023-08-06T05:23:12;12.10;;;3.90;;
69434;SDS011;56625;54.322;18.582;2023-08-06T05:25:40;11.00;;;4.10;;
69434;SDS011;56625;54.322;18.582;2023-08-06T05:28:08;11.80;;;4.30;;
69434;SDS011;56625;54.322;18.582;2023-08-06T05:30:40;10.20;;;3.90;;
69434;SDS011;56625;54.322;18.582;2023-08-06T05:33:09;9.00;;;3.50;;
69434;SDS011;56625;54.322;18.582;2023-08-06T05:35:41;11.50;;;4.30;;
69434;SDS011;56625;54.322;18.582;2023-08-06T05:38:10;10.60;;;4.60;;
69434;SDS011;56625;54.322;18.582;2023-08-06T05:40:39;14.80;;;4.70;;
69434;SDS011;56625;54.322;18.582;2023-08-06T05:43:06;12.40;;;5.30;;
69434;SDS011;56625;54.322;18.582;2023-08-06T05:45:35;10.20;;;4.10;;
69434;SDS011;56625;54.322;18.582;2023-08-06T05:48:03;9.70;;;3.50;;
69434;SDS011;56625;54.322;18.582;2023-08-06T05:50:31;11.50;;;4.30;;
69434;SDS011;56625;54.322;18.582;2023-08-06T05:52:59;10.10;;;3.10;;
69434;SDS011;56625;54.322;18.582;2023-08-06T05:55:28;9.60;;;3.00;;
69434;SDS011;56625;54.322;18.582;2023-08-06T05:57:56;8.40;;;2.70;;
69434;SDS011;56625;54.322;18.582;2023-08-06T06:00:25;8.30;;;3.10;;
69434;SDS011;56625;54.322;18.582;2023-08-06T06:02:53;10.20;;;3.10;;
69434;SDS011;56625;54.322;18.582;2023-08-06T06:05:21;9.80;;;2.90;;
69434;SDS011;56625;54.322;18.582;2023-08-06T06:07:49;11.00;;;3.80;;
69434;SDS011;56625;54.322;18.582;2023-08-06T06:10:17;10.70;;;3.60;;
69434;SDS011;56625;54.322;18.582;2023-08-06T06:12:45;12.90;;;4.10;;
69434;SDS011;56625;54.322;18.582;2023-08-06T06:15:13;11.90;;;3.60;;
69434;SDS011;56625;54.322;18.582;2023-08-06T06:17:41;8.30;;;3.30;;
69434;SDS011;56625;54.322;18.582;2023-08-06T06:20:10;11.50;;;3.60;;
69434;SDS011;56625;54.322;18.582;2023-08-06T06:22:38;9.30;;;3.60;;
69434;SDS011;56625;54.322;18.582;2023-08-06T06:25:06;11.40;;;3.70;;
69434;SDS011;56625;54.322;18.582;2023-08-06T06:27:34;9.70;;;3.60;;
69434;SDS011;56625;54.322;18.582;2023-08-06T06:30:02;11.60;;;4.10;;
69434;SDS011;56625;54.322;18.582;2023-08-06T06:32:31;16.60;;;4.10;;
69434;SDS011;56625;54.322;18.582;2023-08-06T06:34:59;10.90;;;4.30;;
69434;SDS011;56625;54.322;18.582;2023-08-06T06:37:27;13.10;;;5.50;;
69434;SDS011;56625;54.322;18.582;2023-08-06T06:39:55;13.40;;;5.20;;
69434;SDS011;56625;54.322;18.582;2023-08-06T06:42:23;14.90;;;5.50;;
69434;SDS011;56625;54.322;18.582;2023-08-06T06:44:51;19.00;;;5.60;;
69434;SDS011;56625;54.322;18.582;2023-08-06T06:47:19;18.20;;;6.20;;
69434;SDS011;56625;54.322;18.582;2023-08-06T06:49:47;15.90;;;6.40;;
69434;SDS011;56625;54.322;18.582;2023-08-06T06:52:15;11.20;;;9.70;;
69434;SDS011;56625;54.322;18.582;2023-08-06T06:54:43;16.90;;;6.80;;
69434;SDS011;56625;54.322;18.582;2023-08-06T06:57:11;17.70;;;6.50;;
69434;SDS011;56625;54.322;18.582;2023-08-06T06:59:39;13.60;;;6.30;;
69434;SDS011;56625;54.322;18.582;2023-08-06T07:02:07;14.00;;;6.20;;
69434;SDS011;56625;54.322;18.582;2023-08-06T07:04:35;16.60;;;6.60;;
69434;SDS011;56625;54.322;18.582;2023-08-06T07:07:03;13.30;;;5.70;;
69434;SDS011;56625;54.322;18.582;2023-08-06T07:09:31;11.40;;;5.50;;
69434;SDS011;56625;54.322;18.582;2023-08-06T07:11:59;13.00;;;5.70;;
69434;SDS011;56625;54.322;18.582;2023-08-06T07:14:29;13.10;;;5.30;;
69434;SDS011;56625;54.322;18.582;2023-08-06T07:16:58;11.10;;;5.40;;
69434;SDS011;56625;54.322;18.582;2023-08-06T07:19:26;10.90;;;4.90;;
69434;SDS011;56625;54.322;18.582;2023-08-06T07:21:54;16.00;;;6.20;;
69434;SDS011;56625;54.322;18.582;2023-08-06T07:24:23;14.70;;;5.80;;
69434;SDS011;56625;54.322;18.582;2023-08-06T07:26:51;16.30;;;6.40;;
69434;SDS011;56625;54.322;18.582;2023-08-06T07:29:20;13.90;;;5.70;;
69434;SDS011;56625;54.322;18.582;2023-08-06T07:31:50;14.90;;;6.30;;
69434;SDS011;56625;54.322;18.582;2023-08-06T07:34:19;9.60;;;4.80;;
69434;SDS011;56625;54.322;18.582;2023-08-06T07:36:47;9.90;;;4.60;;
69434;SDS011;56625;54.322;18.582;2023-08-06T07:39:15;9.30;;;3.30;;
69434;SDS011;56625;54.322;18.582;2023-08-06T07:41:44;10.60;;;3.60;;
69434;SDS011;56625;54.322;18.582;2023-08-06T07:44:14;9.20;;;3.20;;
69434;SDS011;56625;54.322;18.582;2023-08-06T07:46:42;6.70;;;2.60;;
69434;SDS011;56625;54.322;18.582;2023-08-06T07:49:10;9.20;;;3.20;;
69434;SDS011;56625;54.322;18.582;2023-08-06T07:51:39;8.30;;;3.10;;
69434;SDS011;56625;54.322;18.582;2023-08-06T07:54:07;9.90;;;2.80;;
69434;SDS011;56625;54.322;18.582;2023-08-06T07:56:35;9.50;;;3.00;;
69434;SDS011;56625;54.322;18.582;2023-08-06T07:59:06;6.60;;;3.00;;
69434;SDS011;56625;54.322;18.582;2023-08-06T08:01:35;6.00;;;2.90;;
69434;SDS011;56625;54.322;18.582;2023-08-06T08:04:03;8.10;;;3.30;;
69434;SDS011;56625;54.322;18.582;2023-08-06T08:06:33;8.30;;;3.00;;
69434;SDS011;56625;54.322;18.582;2023-08-06T08:09:01;8.20;;;3.00;;
69434;SDS011;56625;54.322;18.582;2023-08-06T08:11:29;7.20;;;3.10;;
69434;SDS011;56625;54.322;18.582;2023-08-06T08:13:59;10.90;;;3.60;;
69434;SDS011;56625;54.322;18.582;2023-08-06T08:16:30;8.70;;;3.60;;
69434;SDS011;56625;54.322;18.582;2023-08-06T08:19:01;10.40;;;3.60;;
69434;SDS011;56625;54.322;18.582;2023-08-06T08:21:34;8.60;;;3.80;;
69434;SDS011;56625;54.322;18.582;2023-08-06T08:24:04;10.20;;;3.50;;
69434;SDS011;56625;54.322;18.582;2023-08-06T08:26:32;8.70;;;3.90;;
69434;SDS011;56625;54.322;18.582;2023-08-06T08:29:03;10.00;;;4.50;;
69434;SDS011;56625;54.322;18.582;2023-08-06T08:31:34;11.10;;;4.60;;
69434;SDS011;56625;54.322;18.582;2023-08-06T08:34:07;11.10;;;5.40;;
69434;SDS011;56625;54.322;18.582;2023-08-06T08:36:35;18.40;;;8.30;;
69434;SDS011;56625;54.322;18.582;2023-08-06T08:39:03;18.90;;;9.90;;
69434;SDS011;56625;54.322;18.582;2023-08-06T08:41:33;18.00;;;10.00;;
69434;SDS011;56625;54.322;18.582;2023-08-06T08:44:07;18.40;;;9.20;;
69434;SDS011;56625;54.322;18.582;2023-08-06T08:46:40;15.50;;;8.50;;
69434;SDS011;56625;54.322;18.582;2023-08-06T08:49:10;14.20;;;6.90;;
69434;SDS011;56625;54.322;18.582;2023-08-06T08:51:39;12.60;;;6.30;;
69434;SDS011;56625;54.322;18.582;2023-08-06T08:54:08;12.50;;;5.40;;
69434;SDS011;56625;54.322;18.582;2023-08-06T08:56:39;12.30;;;5.70;;
69434;SDS011;56625;54.322;18.582;2023-08-06T08:59:09;11.50;;;5.20;;
69434;SDS011;56625;54.322;18.582;2023-08-06T09:01:40;10.90;;;5.90;;
69434;SDS011;56625;54.322;18.582;2023-08-06T09:04:45;11.90;;;5.80;;
69434;SDS011;56625;54.322;18.582;2023-08-06T09:08:15;9.30;;;5.10;;
69434;SDS011;56625;54.322;18.582;2023-08-06T09:10:48;9.40;;;4.50;;
69434;SDS011;56625;54.322;18.582;2023-08-06T09:13:22;12.00;;;5.80;;
69434;SDS011;56625;54.322;18.582;2023-08-06T09:16:02;12.50;;;6.40;;
69434;SDS011;56625;54.322;18.582;2023-08-06T09:18:37;12.70;;;5.60;;
69434;SDS011;56625;54.322;18.582;2023-08-06T09:23:18;12.60;;;5.40;;
69434;SDS011;56625;54.322;18.582;2023-08-06T09:27:02;10.80;;;5.70;;
69434;SDS011;56625;54.322;18.582;2023-08-06T09:30:44;11.20;;;5.20;;
69434;SDS011;56625;54.322;18.582;2023-08-06T09:33:29;11.80;;;5.10;;
69434;SDS011;56625;54.322;18.582;2023-08-06T09:36:49;11.60;;;5.70;;
69434;SDS011;56625;54.322;18.582;2023-08-06T09:40:00;11.60;;;6.70;;
69434;SDS011;56625;54.322;18.582;2023-08-06T09:42:43;12.90;;;6.30;;
69434;SDS011;56625;54.322;18.582;2023-08-06T09:45:34;13.40;;;5.80;;
69434;SDS011;56625;54.322;18.582;2023-08-06T09:48:09;14.60;;;6.90;;
69434;SDS011;56625;54.322;18.582;2023-08-06T09:50:40;10.00;;;6.00;;
69434;SDS011;56625;54.322;18.582;2023-08-06T09:53:15;10.60;;;6.20;;
69434;SDS011;56625;54.322;18.582;2023-08-06T09:55:56;10.50;;;6.50;;
69434;SDS011;56625;54.322;18.582;2023-08-06T09:58:31;12.90;;;6.90;;
69434;SDS011;56625;54.322;18.582;2023-08-06T10:01:03;12.30;;;6.60;;
69434;SDS011;56625;54.322;18.582;2023-08-06T10:03:33;12.00;;;6.80;;
69434;SDS011;56625;54.322;18.582;2023-08-06T10:06:03;12.30;;;6.80;;
69434;SDS011;56625;54.322;18.582;2023-08-06T10:08:34;11.50;;;6.30;;
69434;SDS011;56625;54.322;18.582;2023-08-06T10:11:02;10.30;;;6.50;;
69434;SDS011;56625;54.322;18.582;2023-08-06T10:13:33;11.20;;;6.30;;
69434;SDS011;56625;54.322;18.582;2023-08-06T10:16:04;11.40;;;7.10;;
69434;SDS011;56625;54.322;18.582;2023-08-06T10:18:36;10.90;;;7.00;;
69434;SDS011;56625;54.322;18.582;2023-08-06T10:21:09;12.60;;;7.40;;
69434;SDS011;56625;54.322;18.582;2023-08-06T10:23:40;12.00;;;7.60;;
69434;SDS011;56625;54.322;18.582;2023-08-06T10:26:08;13.50;;;7.40;;
69434;SDS011;56625;54.322;18.582;2023-08-06T10:28:37;12.30;;;7.70;;
69434;SDS011;56625;54.322;18.582;2023-08-06T10:31:06;13.00;;;7.30;;
69434;SDS011;56625;54.322;18.582;2023-08-06T10:33:42;11.90;;;7.10;;
69434;SDS011;56625;54.322;18.582;2023-08-06T10:36:12;12.40;;;7.00;;
69434;SDS011;56625;54.322;18.582;2023-08-06T10:38:47;12.20;;;7.10;;
69434;SDS011;56625;54.322;18.582;2023-08-06T10:41:22;12.50;;;7.70;;
69434;SDS011;56625;54.322;18.582;2023-08-06T10:44:08;12.20;;;7.40;;
69434;SDS011;56625;54.322;18.582;2023-08-06T10:46:37;12.80;;;8.10;;
69434;SDS011;56625;54.322;18.582;2023-08-06T10:49:06;16.10;;;8.20;;
69434;SDS011;56625;54.322;18.582;2023-08-06T10:51:35;12.20;;;8.10;;
69434;SDS011;56625;54.322;18.582;2023-08-06T10:54:04;13.00;;;8.40;;
69434;SDS011;56625;54.322;18.582;2023-08-06T10:56:39;13.80;;;8.30;;
69434;SDS011;56625;54.322;18.582;2023-08-06T10:59:09;13.50;;;7.60;;
69434;SDS011;56625;54.322;18.582;2023-08-06T11:01:38;14.20;;;8.30;;
69434;SDS011;56625;54.322;18.582;2023-08-06T11:04:07;14.20;;;8.40;;
69434;SDS011;56625;54.322;18.582;2023-08-06T11:06:35;11.50;;;7.60;;
69434;SDS011;56625;54.322;18.582;2023-08-06T11:09:03;13.50;;;7.50;;
69434;SDS011;56625;54.322;18.582;2023-08-06T11:11:31;12.30;;;7.60;;
69434;SDS011;56625;54.322;18.582;2023-08-06T11:13:59;13.10;;;7.90;;
69434;SDS011;56625;54.322;18.582;2023-08-06T11:16:27;12.90;;;8.20;;
69434;SDS011;56625;54.322;18.582;2023-08-06T11:18:55;11.70;;;7.10;;
69434;SDS011;56625;54.322;18.582;2023-08-06T11:21:25;14.40;;;8.20;;
69434;SDS011;56625;54.322;18.582;2023-08-06T11:23:53;11.50;;;7.40;;
69434;SDS011;56625;54.322;18.582;2023-08-06T11:26:22;14.10;;;8.10;;
69434;SDS011;56625;54.322;18.582;2023-08-06T11:28:55;12.50;;;7.50;;
69434;SDS011;56625;54.322;18.582;2023-08-06T11:31:23;13.80;;;7.40;;
69434;SDS011;56625;54.322;18.582;2023-08-06T11:33:53;13.90;;;7.70;;
69434;SDS011;56625;54.322;18.582;2023-08-06T11:36:32;13.60;;;9.20;;
69434;SDS011;56625;54.322;18.582;2023-08-06T11:39:03;12.60;;;7.40;;
69434;SDS011;56625;54.322;18.582;2023-08-06T11:41:33;14.40;;;7.80;;
69434;SDS011;56625;54.322;18.582;2023-08-06T11:44:02;14.20;;;9.30;;
69434;SDS011;56625;54.322;18.582;2023-08-06T11:46:49;16.20;;;9.70;;
69434;SDS011;56625;54.322;18.582;2023-08-06T11:49:20;15.70;;;9.40;;
69434;SDS011;56625;54.322;18.582;2023-08-06T11:51:49;13.90;;;9.60;;
69434;SDS011;56625;54.322;18.582;2023-08-06T11:54:30;13.40;;;9.60;;
69434;SDS011;56625;54.322;18.582;2023-08-06T11:57:02;13.50;;;9.10;;
69434;SDS011;56625;54.322;18.582;2023-08-06T11:59:33;13.90;;;8.80;;
69434;SDS011;56625;54.322;18.582;2023-08-06T12:02:03;12.60;;;8.90;;
69434;SDS011;56625;54.322;18.582;2023-08-06T12:04:57;13.10;;;8.70;;
69434;SDS011;56625;54.322;18.582;2023-08-06T12:07:32;14.60;;;8.90;;
69434;SDS011;56625;54.322;18.582;2023-08-06T12:10:00;14.70;;;8.90;;
69434;SDS011;56625;54.322;18.582;2023-08-06T12:12:28;13.30;;;9.10;;
69434;SDS011;56625;54.322;18.582;2023-08-06T12:14:57;12.50;;;9.00;;
69434;SDS011;56625;54.322;18.582;2023-08-06T12:17:25;14.10;;;8.30;;
69434;SDS011;56625;54.322;18.582;2023-08-06T12:19:53;14.10;;;9.30;;
69434;SDS011;56625;54.322;18.582;2023-08-06T12:22:21;12.80;;;8.60;;
69434;SDS011;56625;54.322;18.582;2023-08-06T12:24:51;15.20;;;9.00;;
69434;SDS011;56625;54.322;18.582;2023-08-06T12:27:19;15.60;;;9.50;;
69434;SDS011;56625;54.322;18.582;2023-08-06T12:29:49;13.10;;;8.90;;
69434;SDS011;56625;54.322;18.582;2023-08-06T12:32:17;14.70;;;8.40;;
69434;SDS011;56625;54.322;18.582;2023-08-06T12:34:47;12.50;;;8.40;;
69434;SDS011;56625;54.322;18.582;2023-08-06T12:37:20;14.10;;;8.70;;
69434;SDS011;56625;54.322;18.582;2023-08-06T12:39:48;13.10;;;8.70;;
69434;SDS011;56625;54.322;18.582;2023-08-06T12:42:20;14.80;;;9.60;;
69434;SDS011;56625;54.322;18.582;2023-08-06T12:44:48;13.10;;;8.80;;
69434;SDS011;56625;54.322;18.582;2023-08-06T12:47:17;12.80;;;8.60;;
69434;SDS011;56625;54.322;18.582;2023-08-06T12:49:46;13.60;;;9.00;;
69434;SDS011;56625;54.322;18.582;2023-08-06T12:52:14;12.50;;;8.20;;
69434;SDS011;56625;54.322;18.582;2023-08-06T12:54:43;12.60;;;8.20;;
69434;SDS011;56625;54.322;18.582;2023-08-06T12:57:11;13.10;;;9.00;;
69434;SDS011;56625;54.322;18.582;2023-08-06T12:59:39;13.20;;;9.00;;
69434;SDS011;56625;54.322;18.582;2023-08-06T13:02:07;12.30;;;8.50;;
69434;SDS011;56625;54.322;18.582;2023-08-06T13:04:35;14.50;;;9.60;;
69434;SDS011;56625;54.322;18.582;2023-08-06T13:07:03;13.80;;;9.40;;
69434;SDS011;56625;54.322;18.582;2023-08-06T13:09:33;14.10;;;8.70;;
69434;SDS011;56625;54.322;18.582;2023-08-06T13:12:01;14.10;;;9.60;;
69434;SDS011;56625;54.322;18.582;2023-08-06T13:14:33;11.70;;;8.60;;
69434;SDS011;56625;54.322;18.582;2023-08-06T13:17:01;12.70;;;8.40;;
69434;SDS011;56625;54.322;18.582;2023-08-06T13:19:29;13.50;;;9.40;;
69434;SDS011;56625;54.322;18.582;2023-08-06T13:24:29;15.30;;;9.30;;
69434;SDS011;56625;54.322;18.582;2023-08-06T13:26:58;13.00;;;8.90;;
69434;SDS011;56625;54.322;18.582;2023-08-06T13:29:27;13.90;;;8.30;;
69434;SDS011;56625;54.322;18.582;2023-08-06T13:31:55;15.50;;;9.40;;
69434;SDS011;56625;54.322;18.582;2023-08-06T13:34:23;12.90;;;9.20;;
69434;SDS011;56625;54.322;18.582;2023-08-06T13:36:51;14.50;;;8.80;;
69434;SDS011;56625;54.322;18.582;2023-08-06T13:39:20;12.70;;;8.90;;
69434;SDS011;56625;54.322;18.582;2023-08-06T13:41:48;13.80;;;8.90;;
69434;SDS011;56625;54.322;18.582;2023-08-06T13:44:16;13.20;;;9.20;;
69434;SDS011;56625;54.322;18.582;2023-08-06T13:46:44;11.70;;;9.20;;
69434;SDS011;56625;54.322;18.582;2023-08-06T13:49:12;13.00;;;9.70;;
69434;SDS011;56625;54.322;18.582;2023-08-06T13:51:40;13.50;;;8.70;;
69434;SDS011;56625;54.322;18.582;2023-08-06T13:54:08;12.80;;;9.20;;
69434;SDS011;56625;54.322;18.582;2023-08-06T13:56:35;12.50;;;9.30;;
69434;SDS011;56625;54.322;18.582;2023-08-06T13:59:05;12.80;;;9.60;;
69434;SDS011;56625;54.322;18.582;2023-08-06T14:01:34;12.50;;;9.40;;
69434;SDS011;56625;54.322;18.582;2023-08-06T14:04:18;11.80;;;9.20;;
69434;SDS011;56625;54.322;18.582;2023-08-06T14:06:46;14.30;;;9.40;;
69434;SDS011;56625;54.322;18.582;2023-08-06T14:09:14;11.30;;;8.10;;
69434;SDS011;56625;54.322;18.582;2023-08-06T14:11:46;14.40;;;8.60;;
69434;SDS011;56625;54.322;18.582;2023-08-06T14:14:14;12.90;;;9.50;;
69434;SDS011;56625;54.322;18.582;2023-08-06T14:16:42;12.30;;;9.00;;
69434;SDS011;56625;54.322;18.582;2023-08-06T14:19:10;13.40;;;8.90;;
69434;SDS011;56625;54.322;18.582;2023-08-06T14:21:38;15.60;;;8.80;;
69434;SDS011;56625;54.322;18.582;2023-08-06T14:24:06;13.00;;;9.30;;
69434;SDS011;56625;54.322;18.582;2023-08-06T14:26:34;14.40;;;9.50;;
69434;SDS011;56625;54.322;18.582;2023-08-06T14:29:03;12.80;;;9.30;;
69434;SDS011;56625;54.322;18.582;2023-08-06T14:31:31;12.90;;;9.20;;
69434;SDS011;56625;54.322;18.582;2023-08-06T14:33:59;14.10;;;8.70;;
69434;SDS011;56625;54.322;18.582;2023-08-06T14:36:27;14.10;;;9.30;;
69434;SDS011;56625;54.322;18.582;2023-08-06T14:38:55;17.00;;;9.50;;
69434;SDS011;56625;54.322;18.582;2023-08-06T14:41:27;15.90;;;9.80;;
69434;SDS011;56625;54.322;18.582;2023-08-06T14:43:58;13.10;;;9.80;;
69434;SDS011;56625;54.322;18.582;2023-08-06T14:46:29;13.10;;;9.80;;
69434;SDS011;56625;54.322;18.582;2023-08-06T14:48:59;16.20;;;10.40;;
69434;SDS011;56625;54.322;18.582;2023-08-06T14:52:00;13.90;;;9.90;;
69434;SDS011;56625;54.322;18.582;2023-08-06T14:54:38;14.50;;;10.20;;
69434;SDS011;56625;54.322;18.582;2023-08-06T14:57:09;13.90;;;10.20;;